イースター島 の空港の天気 - METARとTAF

マタベリ国際空港 ( SCIP / IPC ) - チリ イースター島
飛行場実況気象(Metar)
観測時間05/28 16:00 EAT (05/28 22:00 UTC)
風向・風速西北西 4m/s
視程10km以上
天気現象
少しの雲 雲底高度 300m
全天の8割程度の雲 雲底高度 760m
気温21℃
湿度94%
気圧1019hPa
METARSCIP 282200Z 30007KT 9999 FEW010 BKN025 21/20 Q1019 NOSIG
過去の天気等 Google飛行場航空写真 Wunderground天気予報

過去48時間のMETAR

飛行場予報(TAF)
発表時間: 5/28 10:24 EAT (5/28 16:24 UTC)
予報対象時間: 28日12時 EAT ~ 29日12時 EAT
風向・風速西北西 5m/s
視程10km以上
全天の4割程度の雲 雲底高度 610m
全天の8割程度の雲 雲底高度 1070m
28日12時 EAT ~ 28日21時 EAT に一時的に
視程4000m
天気現象弱い雨
全天の4割程度の雲 雲底高度 150m
全天の8割程度の雲 雲底高度 370m
全天を覆う雲 雲底高度 610m
29日10時 EAT ~ 29日12時 EAT に徐々に
風向・風速南東 2m/s
TAF SCIP 281624Z 2818/2918 29010KT 9999 SCT020 BKN035 TN16/2907Z TX23/2818Z
TEMPO 2818/2903 4000 -RA SCT005 BKN012 OVC020
BECMG 2916/2918 13004KT